Time;durP1;ratioP1;P1;durP2;ratioP2;P2;SDS_P1;SDS_P2;PMS_P1;PMS_P2;Temp;Humidity;BMP_temperature;BMP_pressure;BME280_temperature;BME280_humidity;BME280_pressure;Samples;Min_cycle;Max_cycle;Signal;HPM_P1;HPM_P2
2023/08/25 00:01:27;;;;;;;10.68;9.60;;;20.10;99.90;;;;;;5068004;28;20262;-58
2023/08/25 00:03:55;;;;;;;19.75;10.95;;;20.10;99.90;;;;;;5066471;28;20201;-58
2023/08/25 00:06:23;;;;;;;13.82;9.80;;;20.10;99.90;;;;;;5060427;28;20236;-58
2023/08/25 00:08:51;;;;;;;14.57;10.05;;;20.10;99.90;;;;;;5065666;28;20205;-57
2023/08/25 00:11:20;;;;;;;13.68;10.93;;;20.00;99.90;;;;;;5071028;28;20201;-58
2023/08/25 00:13:48;;;;;;;12.25;9.50;;;20.00;99.90;;;;;;5072665;28;20213;-58
2023/08/25 00:16:16;;;;;;;14.32;9.65;;;20.00;99.90;;;;;;5072948;28;20291;-58
2023/08/25 00:18:45;;;;;;;12.52;10.02;;;20.00;99.90;;;;;;5072632;28;20201;-59
2023/08/25 00:21:15;;;;;;;11.05;9.85;;;20.00;99.90;;;;;;5065443;28;20716;-58
2023/08/25 00:23:43;;;;;;;16.20;10.70;;;20.00;99.90;;;;;;5074696;28;20262;-58
2023/08/25 00:26:11;;;;;;;11.63;9.98;;;20.00;99.90;;;;;;5073979;28;20657;-58
2023/08/25 00:28:40;;;;;;;14.77;10.32;;;19.90;99.90;;;;;;5068627;28;20201;-58
2023/08/25 00:31:08;;;;;;;14.75;11.40;;;20.00;99.90;;;;;;5072254;28;20671;-58
2023/08/25 00:33:36;;;;;;;14.98;11.00;;;19.90;99.90;;;;;;5072677;28;20663;-58
2023/08/25 00:36:04;;;;;;;14.00;10.00;;;19.90;99.90;;;;;;5072356;28;20630;-58
2023/08/25 00:38:32;;;;;;;13.60;11.30;;;19.90;99.90;;;;;;5072725;28;20204;-58
2023/08/25 00:41:00;;;;;;;17.13;9.75;;;19.90;99.90;;;;;;5071894;28;20619;-58
2023/08/25 00:43:28;;;;;;;15.40;11.45;;;19.90;99.90;;;;;;5072640;28;20840;-59
2023/08/25 00:45:57;;;;;;;11.90;10.20;;;19.80;99.90;;;;;;5071121;28;20779;-58
2023/08/25 00:48:25;;;;;;;12.35;10.88;;;19.80;99.90;;;;;;5071380;28;20315;-58
2023/08/25 00:50:54;;;;;;;15.02;10.13;;;19.80;99.90;;;;;;5072617;28;20739;-58
2023/08/25 00:53:21;;;;;;;13.25;10.57;;;19.80;99.90;;;;;;5070417;28;20239;-58
2023/08/25 00:55:49;;;;;;;11.98;10.63;;;19.80;99.90;;;;;;5071378;28;20294;-58
2023/08/25 00:58:17;;;;;;;11.70;10.48;;;19.80;99.90;;;;;;5071987;28;20288;-59
2023/08/25 01:00:45;;;;;;;11.23;10.15;;;19.70;99.90;;;;;;5071591;28;20297;-58
2023/08/25 01:03:15;;;;;;;16.65;10.55;;;19.70;99.90;;;;;;5071900;28;20205;-58
2023/08/25 01:05:48;;;;;;;16.05;11.15;;;19.70;99.90;;;;;;5071682;28;20235;-58
2023/08/25 01:08:16;;;;;;;18.48;12.15;;;19.60;99.90;;;;;;5071420;28;20216;-58
2023/08/25 01:10:48;;;;;;;13.77;11.00;;;19.60;99.90;;;;;;5071251;28;20204;-58
2023/08/25 01:13:17;;;;;;;19.13;10.85;;;19.60;99.90;;;;;;5071864;28;20232;-59
2023/08/25 01:15:46;;;;;;;15.38;10.27;;;19.60;99.90;;;;;;5064852;28;20666;-59
2023/08/25 01:18:17;;;;;;;12.32;10.30;;;19.60;99.90;;;;;;5071174;28;20196;-58
2023/08/25 01:20:45;;;;;;;13.30;10.70;;;19.50;99.90;;;;;;5063720;28;20204;-58
2023/08/25 01:23:16;;;;;;;14.63;11.63;;;19.50;99.90;;;;;;5072223;28;20269;-58
2023/08/25 01:25:46;;;;;;;16.80;11.20;;;19.40;99.90;;;;;;5064460;28;20303;-58
2023/08/25 01:28:14;;;;;;;12.10;10.27;;;19.40;99.90;;;;;;5071799;28;20221;-58
2023/08/25 01:30:43;;;;;;;15.85;10.77;;;19.40;99.90;;;;;;5070390;28;20205;-58
2023/08/25 01:33:12;;;;;;;15.40;11.15;;;19.40;99.90;;;;;;5071537;28;20201;-58
2023/08/25 01:35:48;;;;;;;14.23;11.23;;;19.40;99.90;;;;;;5070415;28;20282;-58
2023/08/25 01:38:18;;;;;;;17.10;12.35;;;19.30;99.90;;;;;;5065152;28;20250;-58
2023/08/25 01:40:51;;;;;;;19.90;12.77;;;19.30;99.90;;;;;;5071294;28;20320;-58
2023/08/25 01:43:21;;;;;;;13.60;12.15;;;19.30;99.90;;;;;;5071712;28;20266;-58
2023/08/25 01:45:49;;;;;;;13.68;11.57;;;19.30;99.90;;;;;;5070306;28;20248;-58
2023/08/25 01:48:17;;;;;;;13.10;11.15;;;19.30;99.90;;;;;;5070810;28;20224;-58
2023/08/25 01:50:45;;;;;;;13.80;11.32;;;19.30;99.90;;;;;;5064020;28;20244;-58
2023/08/25 01:53:13;;;;;;;12.70;11.10;;;19.30;99.90;;;;;;5063789;28;20250;-58
2023/08/25 01:55:41;;;;;;;15.43;13.75;;;19.30;99.90;;;;;;5071011;28;20320;-58
2023/08/25 01:58:10;;;;;;;16.58;13.48;;;19.30;99.90;;;;;;5068813;28;20369;-58
2023/08/25 02:00:38;;;;;;;15.93;13.30;;;19.30;99.90;;;;;;5071637;28;20781;-58
2023/08/25 02:03:06;;;;;;;16.98;15.13;;;19.20;99.90;;;;;;5071578;28;20204;-58
2023/08/25 02:05:34;;;;;;;21.75;15.45;;;19.30;99.90;;;;;;5072128;28;20237;-59
2023/08/25 02:08:02;;;;;;;19.08;15.88;;;19.30;99.90;;;;;;5070573;28;20815;-59
2023/08/25 02:10:30;;;;;;;21.95;15.93;;;19.20;99.90;;;;;;5070561;28;20296;-58
2023/08/25 02:12:58;;;;;;;22.90;13.85;;;19.30;99.90;;;;;;5071216;28;20297;-59
2023/08/25 02:15:27;;;;;;;20.33;14.00;;;19.20;99.90;;;;;;5070196;28;20315;-59
2023/08/25 02:17:55;;;;;;;21.90;16.67;;;19.30;99.90;;;;;;5069967;28;20193;-59
2023/08/25 02:20:25;;;;;;;18.42;14.85;;;19.30;99.90;;;;;;5068510;28;20205;-58
2023/08/25 02:22:53;;;;;;;25.58;15.63;;;19.30;99.90;;;;;;5066319;28;20201;-59
2023/08/25 02:25:20;;;;;;;23.60;16.02;;;19.30;99.90;;;;;;5071875;28;20228;-59
2023/08/25 02:27:48;;;;;;;19.02;14.90;;;19.30;99.90;;;;;;5079641;28;20707;-59
2023/08/25 02:30:17;;;;;;;22.35;16.95;;;19.30;99.90;;;;;;5092734;28;20303;-59
2023/08/25 02:32:46;;;;;;;17.70;14.52;;;19.30;99.90;;;;;;5091754;28;20235;-59
2023/08/25 02:35:14;;;;;;;25.45;16.42;;;19.30;99.90;;;;;;5092043;28;20223;-58
2023/08/25 02:37:58;;;;;;;23.48;17.38;;;19.40;99.90;;;;;;5092299;28;20288;-59
2023/08/25 02:40:26;;;;;;;20.13;17.42;;;19.30;99.90;;;;;;5072048;28;20258;-59
2023/08/25 02:42:54;;;;;;;21.45;16.75;;;19.30;99.90;;;;;;5072164;28;20262;-58
2023/08/25 02:45:23;;;;;;;20.60;18.48;;;19.30;99.90;;;;;;5072118;28;20264;-59
2023/08/25 02:47:52;;;;;;;27.65;20.17;;;19.30;99.90;;;;;;5072031;28;20345;-58
2023/08/25 02:50:21;;;;;;;28.20;20.00;;;19.40;99.90;;;;;;5071515;28;20576;-59
2023/08/25 02:52:49;;;;;;;22.77;20.35;;;19.30;99.90;;;;;;5069480;28;20676;-58
2023/08/25 02:55:19;;;;;;;22.13;19.80;;;19.30;99.90;;;;;;5069567;28;20290;-59
2023/08/25 02:57:47;;;;;;;23.65;20.70;;;19.40;99.90;;;;;;5061118;28;20205;-59
2023/08/25 03:00:17;;;;;;;23.23;20.50;;;19.40;99.90;;;;;;5070073;28;20205;-58
2023/08/25 03:02:45;;;;;;;28.05;19.80;;;19.40;99.90;;;;;;5069737;28;20664;-59
2023/08/25 03:05:14;;;;;;;25.33;22.63;;;19.50;99.90;;;;;;5069473;28;20228;-58
2023/08/25 03:07:42;;;;;;;25.50;20.55;;;19.50;99.90;;;;;;5068614;28;20208;-59
2023/08/25 03:10:10;;;;;;;23.20;20.55;;;19.50;99.90;;;;;;5068999;28;20201;-59
2023/08/25 03:12:38;;;;;;;27.58;18.83;;;19.50;99.90;;;;;;5069118;28;20211;-59
2023/08/25 03:15:08;;;;;;;27.60;19.13;;;19.50;99.90;;;;;;5069427;28;20235;-58
2023/08/25 03:17:35;;;;;;;29.02;20.98;;;19.50;99.90;;;;;;5068367;28;20219;-59
2023/08/25 03:20:04;;;;;;;24.92;19.73;;;19.50;99.90;;;;;;5069903;28;20570;-59
2023/08/25 03:22:33;;;;;;;22.50;20.10;;;19.50;99.90;;;;;;5068334;28;20259;-58
2023/08/25 03:25:01;;;;;;;29.75;20.00;;;19.50;99.90;;;;;;5064573;28;20220;-58
2023/08/25 03:27:32;;;;;;;20.55;18.35;;;19.50;99.90;;;;;;5068215;28;20744;-58
2023/08/25 03:30:00;;;;;;;25.13;20.23;;;19.60;99.90;;;;;;5069574;28;20270;-59
2023/08/25 03:32:28;;;;;;;29.88;21.48;;;19.60;99.90;;;;;;5070129;28;20208;-59
2023/08/25 03:34:56;;;;;;;31.50;24.90;;;19.60;99.90;;;;;;5067766;28;20258;-59
2023/08/25 03:37:24;;;;;;;47.72;30.95;;;19.60;99.90;;;;;;5068247;28;20254;-58
2023/08/25 03:39:53;;;;;;;46.55;31.15;;;19.60;99.90;;;;;;5069079;28;20371;-59
2023/08/25 03:42:21;;;;;;;59.72;34.97;;;19.60;99.90;;;;;;5069449;28;20814;-59
2023/08/25 03:44:49;;;;;;;43.70;30.67;;;19.50;99.90;;;;;;5068499;28;20211;-59
2023/08/25 03:47:17;;;;;;;48.67;33.40;;;19.60;99.90;;;;;;5068649;28;20658;-59
2023/08/25 03:49:45;;;;;;;48.50;34.95;;;19.60;99.90;;;;;;5068942;28;20676;-59
2023/08/25 03:52:13;;;;;;;47.00;36.15;;;19.60;99.90;;;;;;5069333;28;20255;-58
2023/08/25 03:54:40;;;;;;;55.90;39.70;;;19.60;99.90;;;;;;5064680;28;20638;-59
2023/08/25 03:57:10;;;;;;;56.72;41.17;;;19.70;99.90;;;;;;5068535;28;20291;-58
2023/08/25 03:59:38;;;;;;;56.03;39.92;;;19.70;99.90;;;;;;5069364;28;20203;-59
2023/08/25 04:02:06;;;;;;;56.80;40.33;;;19.70;99.90;;;;;;5067169;28;20205;-59
2023/08/25 04:04:34;;;;;;;60.67;41.33;;;19.70;99.90;;;;;;5069396;28;20565;-58
2023/08/25 04:07:01;;;;;;;49.63;39.38;;;19.70;99.90;;;;;;5063046;28;20209;-55
2023/08/25 04:09:29;;;;;;;44.20;34.17;;;19.70;99.90;;;;;;5068571;28;20243;-56
2023/08/25 04:11:57;;;;;;;41.70;31.55;;;19.70;99.90;;;;;;5068707;28;20666;-55
2023/08/25 04:14:26;;;;;;;46.05;32.70;;;19.70;99.90;;;;;;5060875;28;20204;-57
2023/08/25 04:16:54;;;;;;;36.47;30.67;;;19.80;99.90;;;;;;5064888;28;20331;-58
2023/08/25 04:19:22;;;;;;;43.97;33.85;;;19.80;99.90;;;;;;5066183;28;20744;-55
2023/08/25 04:21:50;;;;;;;43.67;32.35;;;19.80;99.90;;;;;;5068451;28;20201;-57
2023/08/25 04:24:18;;;;;;;53.25;31.65;;;19.80;99.90;;;;;;5070476;28;20197;-55
2023/08/25 04:26:46;;;;;;;47.10;28.60;;;19.80;99.90;;;;;;5068964;28;20704;-53
2023/08/25 04:29:14;;;;;;;51.55;31.30;;;19.80;99.90;;;;;;5061766;28;20248;-56
2023/08/25 04:31:43;;;;;;;17.13;14.73;;;19.80;99.90;;;;;;5069684;28;20208;-56
2023/08/25 04:34:11;;;;;;;18.33;13.15;;;19.80;99.90;;;;;;5066456;28;20205;-58
2023/08/25 04:36:39;;;;;;;21.92;17.20;;;20.00;99.90;;;;;;5066493;28;20307;-54
2023/08/25 04:39:07;;;;;;;21.60;17.50;;;20.30;99.90;;;;;;5063109;28;20209;-56
2023/08/25 04:41:36;;;;;;;25.80;18.48;;;20.50;99.90;;;;;;5068408;28;20805;-56
2023/08/25 04:44:05;;;;;;;26.80;21.02;;;20.60;99.90;;;;;;5066930;28;20216;-58
2023/08/25 04:46:33;;;;;;;30.40;23.45;;;20.80;99.90;;;;;;5065526;28;20260;-59
2023/08/25 04:49:02;;;;;;;34.60;21.75;;;20.90;99.90;;;;;;5065822;28;20231;-57
2023/08/25 04:51:30;;;;;;;40.00;28.50;;;21.00;99.90;;;;;;5066038;28;20201;-56
2023/08/25 04:53:58;;;;;;;31.42;27.35;;;21.00;99.90;;;;;;5069158;28;20244;-58
2023/08/25 04:56:26;;;;;;;34.47;28.10;;;20.80;99.90;;;;;;5069625;28;20645;-59
2023/08/25 04:58:54;;;;;;;35.20;27.85;;;20.60;99.90;;;;;;5072646;28;20287;-58
2023/08/25 05:01:22;;;;;;;35.33;28.67;;;20.40;99.90;;;;;;5071466;28;20227;-56
2023/08/25 05:03:50;;;;;;;38.70;27.23;;;20.20;99.90;;;;;;5072248;28;20295;-55
2023/08/25 05:06:19;;;;;;;37.58;29.77;;;20.10;99.90;;;;;;5070953;28;20227;-56
2023/08/25 05:08:47;;;;;;;31.17;27.30;;;20.10;99.90;;;;;;5071944;28;20228;-56
2023/08/25 05:11:16;;;;;;;30.70;22.88;;;20.10;99.90;;;;;;5071226;28;20205;-57
2023/08/25 05:13:44;;;;;;;30.10;21.20;;;20.10;99.90;;;;;;5069513;28;20579;-56
2023/08/25 05:16:15;;;;;;;27.00;22.02;;;20.30;99.90;;;;;;5071249;28;20278;-54
2023/08/25 05:18:42;;;;;;;33.95;20.70;;;20.60;99.90;;;;;;5071716;28;20213;-55
2023/08/25 05:21:10;;;;;;;28.15;20.88;;;20.80;99.90;;;;;;5071648;28;20625;-57
2023/08/25 05:23:43;;;;;;;28.73;22.92;;;21.00;99.90;;;;;;5070766;28;20294;-54
2023/08/25 05:26:11;;;;;;;26.05;21.27;;;21.10;99.90;;;;;;5072865;28;20274;-55
2023/08/25 05:28:39;;;;;;;27.33;23.55;;;21.00;99.90;;;;;;5073095;28;20219;-56
2023/08/25 05:31:08;;;;;;;23.52;19.20;;;21.00;99.90;;;;;;5075035;28;20232;-62
2023/08/25 05:33:36;;;;;;;36.63;29.63;;;21.00;99.90;;;;;;5074079;28;20205;-53
2023/08/25 05:36:04;;;;;;;33.00;27.65;;;20.90;99.90;;;;;;5073383;28;20293;-54
2023/08/25 05:38:32;;;;;;;26.60;21.13;;;20.80;99.90;;;;;;5073173;28;20229;-53
2023/08/25 05:41:01;;;;;;;34.85;27.23;;;20.70;99.90;;;;;;5073283;28;20232;-54
2023/08/25 05:43:29;;;;;;;37.40;25.55;;;20.60;99.90;;;;;;5073011;28;20258;-56
2023/08/25 05:45:57;;;;;;;37.90;28.52;;;20.60;99.90;;;;;;5073187;28;20285;-54
2023/08/25 05:48:25;;;;;;;33.20;24.75;;;20.50;99.90;;;;;;5073296;28;20201;-53
2023/08/25 05:50:53;;;;;;;35.97;25.50;;;20.40;99.90;;;;;;5071916;28;20225;-53
2023/08/25 05:53:21;;;;;;;35.63;26.52;;;20.40;99.90;;;;;;5067568;28;20736;-52
2023/08/25 05:55:50;;;;;;;41.10;31.23;;;20.30;99.90;;;;;;5052393;28;20320;-53
2023/08/25 05:58:19;;;;;;;38.00;26.90;;;20.30;99.90;;;;;;5053155;28;20205;-57
2023/08/25 06:00:47;;;;;;;39.42;30.02;;;20.20;99.90;;;;;;5052923;28;20249;-54
2023/08/25 06:03:16;;;;;;;35.90;27.08;;;20.20;99.90;;;;;;5052842;28;20209;-52
2023/08/25 06:05:46;;;;;;;30.02;24.63;;;20.10;99.90;;;;;;5052244;28;20260;-52
2023/08/25 06:08:14;;;;;;;28.83;22.13;;;20.10;99.90;;;;;;5052455;28;20282;-53
2023/08/25 06:10:42;;;;;;;35.95;24.10;;;20.20;99.90;;;;;;5060438;28;20220;-52
2023/08/25 06:13:09;;;;;;;38.38;26.48;;;20.20;99.90;;;;;;5072838;28;20237;-52
2023/08/25 06:15:39;;;;;;;27.95;21.35;;;20.20;99.90;;;;;;5071013;28;20232;-53
2023/08/25 06:18:07;;;;;;;31.00;21.02;;;20.30;99.90;;;;;;5071539;28;20219;-57
2023/08/25 06:20:35;;;;;;;30.25;21.30;;;20.40;99.90;;;;;;5072602;28;20205;-57
2023/08/25 06:23:03;;;;;;;30.30;23.73;;;20.40;99.90;;;;;;5074020;28;20231;-55
2023/08/25 06:25:31;;;;;;;34.60;25.15;;;20.50;99.90;;;;;;5071165;28;20712;-58
2023/08/25 06:28:00;;;;;;;34.40;26.00;;;20.50;99.90;;;;;;5075991;28;20354;-58
2023/08/25 06:30:29;;;;;;;31.88;26.08;;;20.50;99.90;;;;;;5076027;28;20236;-57
2023/08/25 06:33:00;;;;;;;33.03;26.65;;;20.50;99.90;;;;;;5074834;28;20224;-59
2023/08/25 06:35:29;;;;;;;32.10;24.60;;;20.50;99.90;;;;;;5071986;28;20626;-57
2023/08/25 06:37:57;;;;;;;34.45;26.40;;;20.50;99.90;;;;;;5071647;28;20235;-56
2023/08/25 06:40:25;;;;;;;33.22;25.90;;;20.40;99.90;;;;;;5070330;28;20200;-57
2023/08/25 06:42:53;;;;;;;29.65;25.98;;;20.50;99.90;;;;;;5071411;28;20307;-59
2023/08/25 06:45:21;;;;;;;33.88;27.77;;;20.50;99.90;;;;;;5070666;28;20309;-58
2023/08/25 06:47:50;;;;;;;35.95;27.98;;;20.50;99.90;;;;;;5071113;28;20251;-57
2023/08/25 06:50:20;;;;;;;33.35;28.23;;;20.50;99.90;;;;;;5070966;28;20229;-57
2023/08/25 06:52:48;;;;;;;36.88;28.48;;;20.50;99.90;;;;;;5071860;28;20226;-58
2023/08/25 06:55:17;;;;;;;39.88;28.75;;;20.50;99.90;;;;;;5071975;28;20228;-59
2023/08/25 06:57:45;;;;;;;34.78;27.67;;;20.60;99.90;;;;;;5072640;28;20293;-57
2023/08/25 07:00:14;;;;;;;32.03;26.00;;;20.60;99.90;;;;;;5072402;28;20287;-59
2023/08/25 07:02:43;;;;;;;35.78;27.48;;;20.60;99.90;;;;;;5072773;28;20193;-57
2023/08/25 07:05:11;;;;;;;37.33;27.33;;;20.70;99.90;;;;;;5072127;28;20220;-56
2023/08/25 07:07:42;;;;;;;30.67;26.10;;;20.70;99.90;;;;;;5072689;28;20266;-59
2023/08/25 07:10:10;;;;;;;30.00;25.77;;;20.70;99.90;;;;;;5072015;28;20219;-57
2023/08/25 07:12:39;;;;;;;28.98;25.30;;;20.80;99.90;;;;;;5072324;28;20684;-60
2023/08/25 07:15:08;;;;;;;35.90;28.17;;;20.80;99.90;;;;;;5073258;28;20296;-56
2023/08/25 07:17:36;;;;;;;34.78;27.23;;;20.80;99.90;;;;;;5073996;28;20234;-57
2023/08/25 07:20:05;;;;;;;28.00;24.70;;;20.80;99.90;;;;;;5073890;28;20200;-57
2023/08/25 07:22:33;;;;;;;29.88;23.02;;;20.80;99.90;;;;;;5074289;28;20212;-58
2023/08/25 07:25:02;;;;;;;26.58;23.30;;;20.90;99.90;;;;;;5073932;28;20767;-59
2023/08/25 07:27:30;;;;;;;21.63;17.75;;;20.90;99.90;;;;;;5075134;28;20243;-58
2023/08/25 07:29:58;;;;;;;23.38;19.33;;;20.90;99.90;;;;;;5073867;28;20200;-58
2023/08/25 07:32:27;;;;;;;19.95;15.40;;;20.90;99.90;;;;;;5075607;28;20236;-57
2023/08/25 07:34:57;;;;;;;22.35;15.57;;;20.90;99.90;;;;;;5073752;28;20294;-59
2023/08/25 07:37:25;;;;;;;19.55;15.30;;;20.90;99.90;;;;;;5075230;28;20205;-58
2023/08/25 07:39:54;;;;;;;19.15;15.95;;;21.00;99.90;;;;;;5075060;28;20299;-58
2023/08/25 07:42:24;;;;;;;18.73;16.13;;;21.00;99.90;;;;;;5075000;28;20244;-59
2023/08/25 07:44:52;;;;;;;17.83;15.10;;;21.00;99.90;;;;;;5073956;28;20692;-57
2023/08/25 07:47:20;;;;;;;17.30;15.52;;;21.10;99.90;;;;;;5075031;28;20212;-58
2023/08/25 07:49:48;;;;;;;16.42;14.68;;;21.10;99.90;;;;;;5073800;28;20244;-59
2023/08/25 07:52:15;;;;;;;15.95;12.48;;;21.20;99.90;;;;;;5072436;28;20228;-60
2023/08/25 07:54:43;;;;;;;13.63;12.30;;;21.10;99.90;;;;;;5073721;28;20275;-61
2023/08/25 07:57:11;;;;;;;14.45;11.75;;;21.10;99.90;;;;;;5074071;28;20250;-57
2023/08/25 07:59:41;;;;;;;14.05;12.52;;;21.20;99.90;;;;;;5075237;28;20204;-58
2023/08/25 08:02:09;;;;;;;12.07;10.77;;;21.20;99.90;;;;;;5075199;28;20189;-57
2023/08/25 08:04:38;;;;;;;11.95;9.55;;;21.30;99.90;;;;;;5075124;28;20675;-58
2023/08/25 08:07:05;;;;;;;10.70;9.23;;;21.30;99.90;;;;;;5075751;28;20201;-58
2023/08/25 08:09:33;;;;;;;12.43;9.40;;;21.40;99.90;;;;;;5075343;28;20205;-58
2023/08/25 08:12:01;;;;;;;10.45;8.73;;;21.50;99.90;;;;;;5075437;28;20648;-57
2023/08/25 08:14:29;;;;;;;9.55;7.70;;;21.50;99.90;;;;;;5075687;28;20246;-57
2023/08/25 08:17:14;;;;;;;9.60;8.00;;;21.50;99.90;;;;;;5072921;28;20652;-60
2023/08/25 08:19:41;;;;;;;8.73;7.78;;;21.60;99.90;;;;;;5074388;28;20199;-58
2023/08/25 08:22:09;;;;;;;9.73;7.22;;;21.70;99.90;;;;;;5073393;28;20680;-58
2023/08/25 08:24:37;;;;;;;7.80;6.93;;;21.90;99.90;;;;;;5073237;28;20215;-61
2023/08/25 08:27:18;;;;;;;9.20;6.10;;;22.00;99.90;;;;;;5074236;28;20246;-56
2023/08/25 08:29:46;;;;;;;9.75;6.35;;;22.30;99.90;;;;;;5073908;28;20262;-58
2023/08/25 08:32:16;;;;;;;6.55;5.65;;;22.40;99.90;;;;;;5077432;28;20244;-57
2023/08/25 08:34:44;;;;;;;6.93;4.95;;;22.50;99.90;;;;;;5077103;28;20208;-57
2023/08/25 08:37:12;;;;;;;8.30;5.57;;;22.50;99.90;;;;;;5078737;28;20251;-58
2023/08/25 08:39:40;;;;;;;8.30;5.45;;;22.40;99.90;;;;;;5075942;28;20240;-60
2023/08/25 08:42:08;;;;;;;11.10;5.32;;;22.40;99.90;;;;;;5073155;28;20201;-60
2023/08/25 08:44:36;;;;;;;5.43;4.93;;;22.40;99.90;;;;;;5073954;28;20247;-61
2023/08/25 08:47:05;;;;;;;7.45;4.65;;;22.40;99.90;;;;;;5074738;28;20602;-61
2023/08/25 08:49:34;;;;;;;9.45;4.97;;;22.40;99.90;;;;;;5074491;28;20254;-61
2023/08/25 08:52:04;;;;;;;7.00;4.35;;;22.50;99.90;;;;;;5074519;28;20315;-61
2023/08/25 08:54:33;;;;;;;10.02;4.75;;;22.70;99.90;;;;;;5073894;28;20204;-57
2023/08/25 08:57:01;;;;;;;9.13;4.50;;;22.80;99.90;;;;;;5074354;28;20384;-61
2023/08/25 08:59:29;;;;;;;9.45;4.78;;;22.70;99.90;;;;;;5074365;28;20236;-61
2023/08/25 09:01:58;;;;;;;6.07;4.25;;;22.60;99.90;;;;;;5074264;28;20652;-61
2023/08/25 09:04:25;;;;;;;6.03;4.40;;;22.40;99.90;;;;;;5074100;28;20204;-61
2023/08/25 09:06:55;;;;;;;8.93;4.63;;;22.30;99.90;;;;;;5073943;28;20640;-61
2023/08/25 09:09:23;;;;;;;5.78;4.30;;;22.30;99.90;;;;;;5073786;28;20204;-60
2023/08/25 09:11:51;;;;;;;6.45;4.43;;;22.30;99.90;;;;;;5073821;28;20761;-61
2023/08/25 09:14:23;;;;;;;5.38;4.15;;;22.50;99.90;;;;;;5073962;28;20292;-60
2023/08/25 09:16:54;;;;;;;6.03;4.18;;;22.80;99.90;;;;;;5073453;28;20315;-61
2023/08/25 09:19:22;;;;;;;11.23;4.57;;;23.10;99.90;;;;;;5073787;28;20240;-61
2023/08/25 09:21:50;;;;;;;6.93;3.72;;;23.50;99.90;;;;;;5073675;28;20336;-61
2023/08/25 09:24:22;;;;;;;6.57;3.60;;;23.80;99.90;;;;;;5073457;28;20803;-61
2023/08/25 09:26:50;;;;;;;5.43;3.75;;;24.00;99.90;;;;;;5073391;28;20256;-61
2023/08/25 09:29:22;;;;;;;4.75;3.80;;;24.10;99.90;;;;;;5073619;28;20683;-61
2023/08/25 09:31:50;;;;;;;8.75;3.42;;;24.10;99.90;;;;;;5073592;28;20256;-61
2023/08/25 09:34:18;;;;;;;3.50;3.10;;;24.10;99.90;;;;;;5073153;28;20315;-59
2023/08/25 09:36:53;;;;;;;3.47;2.97;;;24.10;99.90;;;;;;5073106;28;20662;-61
2023/08/25 09:39:22;;;;;;;7.30;3.13;;;24.10;99.90;;;;;;5073479;28;20398;-61
2023/08/25 09:41:50;;;;;;;4.30;2.75;;;24.10;99.90;;;;;;5073156;28;20664;-61
2023/08/25 09:44:18;;;;;;;8.20;2.92;;;24.20;99.90;;;;;;5073511;28;20247;-61
2023/08/25 09:46:46;;;;;;;2.85;2.65;;;24.30;99.90;;;;;;5073191;28;20271;-61
2023/08/25 09:49:14;;;;;;;4.43;2.90;;;24.30;99.90;;;;;;5073002;28;20630;-60
2023/08/25 09:51:42;;;;;;;6.07;2.50;;;24.30;99.90;;;;;;5073231;28;20229;-61
2023/08/25 09:54:12;;;;;;;4.28;2.70;;;24.30;99.90;;;;;;5073299;28;20367;-61
2023/08/25 09:56:41;;;;;;;4.22;2.22;;;24.30;99.90;;;;;;5072852;28;20325;-61
2023/08/25 09:59:10;;;;;;;3.08;2.55;;;24.30;99.90;;;;;;5072875;28;20280;-59
2023/08/25 10:01:39;;;;;;;4.03;2.47;;;24.40;99.90;;;;;;5072149;28;20881;-61
2023/08/25 10:04:07;;;;;;;5.65;2.85;;;24.40;99.90;;;;;;5072214;28;20216;-58
2023/08/25 10:06:37;;;;;;;2.95;2.70;;;24.60;99.90;;;;;;5071335;28;20220;-61
2023/08/25 10:09:05;;;;;;;2.55;2.35;;;24.70;99.90;;;;;;5064477;28;20208;-61
2023/08/25 10:11:36;;;;;;;2.22;2.13;;;25.00;99.90;;;;;;5057842;28;20271;-61
2023/08/25 10:14:07;;;;;;;4.32;2.17;;;25.30;99.90;;;;;;5052402;28;20284;-61
2023/08/25 10:16:38;;;;;;;3.97;2.58;;;25.60;99.90;;;;;;5052684;28;20610;-57
2023/08/25 10:19:06;;;;;;;7.13;2.60;;;25.80;99.90;;;;;;5052686;28;20307;-58
2023/08/25 10:21:34;;;;;;;3.00;2.38;;;25.90;99.90;;;;;;5052438;28;20209;-58
2023/08/25 10:24:02;;;;;;;3.13;2.65;;;26.00;99.90;;;;;;5052199;28;20667;-57
2023/08/25 10:26:30;;;;;;;5.35;3.03;;;26.00;99.90;;;;;;5052014;28;20298;-59
2023/08/25 10:28:58;;;;;;;4.65;2.50;;;26.00;99.90;;;;;;5051846;28;20296;-59
2023/08/25 10:31:30;;;;;;;2.90;2.45;;;26.10;99.90;;;;;;5052399;28;20266;-59
2023/08/25 10:34:00;;;;;;;2.90;2.45;;;26.30;99.90;;;;;;5052383;28;20217;-60
2023/08/25 10:36:28;;;;;;;2.97;2.40;;;26.60;99.90;;;;;;5051964;28;20221;-58
2023/08/25 10:39:09;;;;;;;3.63;2.38;;;26.70;99.90;;;;;;5052079;28;20764;-58
2023/08/25 10:41:41;;;;;;;4.30;2.70;;;26.70;99.90;;;;;;5052270;28;20209;-58
2023/08/25 10:44:10;;;;;;;3.65;2.30;;;26.60;99.90;;;;;;5052049;28;20263;-58
2023/08/25 10:46:40;;;;;;;3.15;2.13;;;26.40;99.90;;;;;;5051732;28;20282;-57
2023/08/25 10:49:16;;;;;;;2.40;1.85;;;26.20;99.90;;;;;;5052128;28;21113;-57
2023/08/25 10:51:44;;;;;;;3.25;2.55;;;26.30;99.90;;;;;;5052164;28;20630;-57
2023/08/25 10:54:19;;;;;;;2.72;2.13;;;26.30;99.90;;;;;;5051126;28;20215;-57
2023/08/25 10:56:52;;;;;;;4.97;2.47;;;26.50;99.90;;;;;;5051611;28;20225;-59
2023/08/25 10:59:21;;;;;;;7.32;2.63;;;26.80;99.90;;;;;;5051622;28;20213;-59
2023/08/25 11:01:57;;;;;;;3.28;2.30;;;27.00;99.90;;;;;;5051980;28;20241;-57
2023/08/25 11:04:27;;;;;;;3.97;2.35;;;27.20;99.90;;;;;;5051807;28;20208;-58
2023/08/25 11:06:55;;;;;;;4.38;2.20;;;27.30;99.90;;;;;;5051432;28;20713;-58
2023/08/25 11:09:33;;;;;;;4.38;2.20;;;27.20;99.90;;;;;;5051664;28;20279;-60
2023/08/25 11:12:03;;;;;;;3.17;2.28;;;27.20;99.90;;;;;;5067700;28;20204;-58
2023/08/25 11:14:32;;;;;;;4.10;2.20;;;27.40;99.90;;;;;;5069821;28;20204;-56
2023/08/25 11:17:02;;;;;;;2.78;2.10;;;27.60;99.90;;;;;;5068453;28;20739;-58
2023/08/25 11:19:32;;;;;;;5.45;2.38;;;27.90;99.90;;;;;;5070505;28;20205;-60
2023/08/25 11:22:00;;;;;;;2.05;1.90;;;27.90;99.90;;;;;;5070468;28;20262;-57
2023/08/25 11:24:29;;;;;;;5.75;2.67;;;27.90;99.90;;;;;;5070767;28;20209;-59
2023/08/25 11:27:03;;;;;;;2.10;2.00;;;27.60;99.90;;;;;;5070027;28;20205;-58
2023/08/25 11:29:31;;;;;;;2.15;1.98;;;27.50;99.90;;;;;;5070037;28;20297;-58
2023/08/25 11:32:00;;;;;;;1.98;1.80;;;27.30;99.90;;;;;;5070874;28;20243;-59
2023/08/25 11:34:31;;;;;;;5.80;2.65;;;27.10;99.90;;;;;;5070688;28;20236;-57
2023/08/25 11:36:59;;;;;;;2.45;2.03;;;27.00;99.90;;;;;;5070284;28;20208;-58
2023/08/25 11:39:27;;;;;;;2.80;1.98;;;26.70;99.90;;;;;;5069046;28;20201;-60
2023/08/25 11:41:55;;;;;;;2.90;2.40;;;26.60;99.90;;;;;;5070190;28;20205;-59
2023/08/25 11:44:23;;;;;;;2.10;1.95;;;26.70;99.90;;;;;;5068330;28;20605;-58
2023/08/25 11:46:52;;;;;;;2.35;2.10;;;26.80;99.90;;;;;;5069475;28;20643;-58
2023/08/25 11:49:26;;;;;;;2.90;2.00;;;26.80;99.90;;;;;;5069341;28;20209;-58
2023/08/25 11:51:54;;;;;;;3.38;2.53;;;26.90;99.90;;;;;;5070293;28;20291;-58
2023/08/25 11:54:22;;;;;;;2.67;1.90;;;26.80;99.90;;;;;;5070188;28;20319;-58
2023/08/25 11:56:50;;;;;;;2.22;2.03;;;27.00;99.90;;;;;;5070522;28;20220;-58
2023/08/25 11:59:18;;;;;;;3.15;2.85;;;27.20;99.90;;;;;;5070122;28;20204;-58
2023/08/25 12:01:47;;;;;;;4.47;2.40;;;27.30;99.90;;;;;;5070305;28;20240;-57
2023/08/25 12:04:22;;;;;;;2.15;2.00;;;27.30;99.90;;;;;;5068906;28;20284;-57
2023/08/25 12:06:57;;;;;;;2.38;2.10;;;27.20;99.90;;;;;;5073839;28;20315;-59
2023/08/25 12:09:25;;;;;;;2.20;2.10;;;27.20;99.90;;;;;;5074468;28;20266;-58
2023/08/25 12:11:54;;;;;;;6.03;1.85;;;27.10;99.90;;;;;;5074205;28;20228;-59
2023/08/25 12:14:26;;;;;;;2.53;2.30;;;27.10;99.90;;;;;;5073921;28;20305;-58
2023/08/25 12:16:54;;;;;;;2.53;2.33;;;27.00;99.90;;;;;;5073701;28;20320;-59
2023/08/25 12:19:24;;;;;;;2.95;2.13;;;26.80;99.90;;;;;;5073865;28;20208;-58
2023/08/25 12:21:53;;;;;;;3.63;2.38;;;26.60;99.90;;;;;;5073844;28;20255;-58
2023/08/25 12:24:22;;;;;;;2.45;2.30;;;26.40;99.90;;;;;;5073283;28;20289;-56
2023/08/25 12:26:50;;;;;;;2.45;2.28;;;26.20;99.90;;;;;;5054520;28;20287;-57
2023/08/25 12:29:20;;;;;;;3.08;2.40;;;26.10;99.90;;;;;;5051810;28;20201;-57
2023/08/25 12:31:48;;;;;;;3.30;2.63;;;25.90;99.90;;;;;;5054577;28;20654;-58
2023/08/25 12:34:16;;;;;;;4.28;2.35;;;25.90;99.90;;;;;;5054125;28;20287;-58
2023/08/25 12:36:44;;;;;;;3.20;2.20;;;25.90;99.90;;;;;;5054498;28;20260;-57
2023/08/25 12:39:12;;;;;;;2.50;2.30;;;25.80;99.90;;;;;;5054701;28;20260;-56
2023/08/25 12:41:41;;;;;;;3.33;2.40;;;25.70;99.90;;;;;;5054498;28;20267;-57